createdAt,value
2018-02-01T04:32:36.284Z,5.30
2018-02-01T04:35:10.160Z,5.30
2018-02-01T04:37:44.187Z,5.30
2018-02-01T04:40:18.715Z,5.40
2018-02-01T04:42:52.872Z,5.40
2018-02-01T04:45:28.069Z,5.40
2018-02-01T04:48:01.824Z,5.40
2018-02-01T04:50:36.375Z,5.50
2018-02-01T04:53:10.133Z,5.50
2018-02-01T04:55:45.696Z,5.60
2018-02-01T04:58:34.456Z,5.60
2018-02-01T05:01:08.107Z,5.60
2018-02-01T05:03:42.668Z,5.60
2018-02-01T05:06:16.438Z,5.60
2018-02-01T05:08:50.987Z,5.60
2018-02-01T05:11:24.800Z,5.60
2018-02-01T05:13:59.703Z,5.60
2018-02-01T05:16:33.561Z,5.60
2018-02-01T05:19:07.387Z,5.60
2018-02-01T05:21:41.200Z,5.60
2018-02-01T05:24:15.879Z,5.60
2018-02-01T05:26:50.468Z,5.60
2018-02-01T05:29:24.392Z,5.60
2018-02-01T05:31:58.899Z,5.70
2018-02-01T05:34:32.769Z,5.70
2018-02-01T05:37:06.630Z,5.70
2018-02-01T05:39:40.560Z,5.50
2018-02-01T05:42:15.172Z,4.60
2018-02-01T05:44:49.712Z,4.40
2018-02-01T05:47:23.411Z,4.30
2018-02-01T05:49:57.303Z,4.20
2018-02-01T05:52:31.955Z,4.00
2018-02-01T05:55:05.781Z,4.00
2018-02-01T05:57:39.621Z,4.00
2018-02-01T06:00:14.302Z,4.20
2018-02-01T06:02:48.020Z,4.20
2018-02-01T06:05:22.048Z,4.30
2018-02-01T06:07:56.945Z,4.30
2018-02-01T06:10:31.639Z,4.30
2018-02-01T06:13:06.676Z,4.30
2018-02-01T06:15:40.455Z,4.30
2018-02-01T06:18:14.256Z,4.30
2018-02-01T06:20:48.056Z,4.40
2018-02-01T06:23:21.920Z,4.40
2018-02-01T06:25:55.707Z,4.30
2018-02-01T06:28:29.603Z,4.30
2018-02-01T06:31:03.484Z,4.30
2018-02-01T06:33:37.192Z,4.40
2018-02-01T06:36:10.929Z,4.40
2018-02-01T06:38:44.759Z,4.40
2018-02-01T06:41:18.556Z,4.50
2018-02-01T06:43:52.447Z,4.50
2018-02-01T06:46:28.815Z,4.50
2018-02-01T06:49:02.653Z,4.50
2018-02-01T06:51:36.412Z,4.40
2018-02-01T06:54:10.271Z,4.30
2018-02-01T07:01:59.578Z,4.40
2018-02-01T07:04:34.075Z,4.40
2018-02-01T07:07:07.767Z,4.40
2018-02-01T07:09:41.551Z,4.40
2018-02-01T07:12:17.804Z,4.60
2018-02-01T07:15:04.262Z,4.50
2018-02-01T07:17:38.024Z,4.60
2018-02-01T07:20:11.899Z,4.60
2018-02-01T07:22:45.669Z,4.70
2018-02-01T07:25:20.189Z,4.80
2018-02-01T07:27:53.952Z,4.70
2018-02-01T07:30:28.623Z,4.90
2018-02-01T07:33:02.297Z,4.90
2018-02-01T07:35:36.859Z,4.90
2018-02-01T07:38:10.677Z,4.90
2018-02-01T07:40:45.283Z,5.00
2018-02-01T07:43:19.060Z,5.00
2018-02-01T07:45:54.729Z,5.00
2018-02-01T07:48:28.562Z,5.00
2018-02-01T07:51:02.361Z,5.10
2018-02-01T07:53:36.743Z,5.10
2018-02-01T07:56:10.489Z,5.10
2018-02-01T07:58:45.103Z,5.20
2018-02-01T08:01:19.091Z,5.20
2018-02-01T08:03:53.241Z,5.20
2018-02-01T08:06:26.976Z,5.20
2018-02-01T08:09:00.725Z,5.20
2018-02-01T08:11:34.852Z,5.30
2018-02-01T08:14:08.593Z,5.30
2018-02-01T08:16:42.766Z,5.30
2018-02-01T08:19:16.556Z,5.20
2018-02-01T08:21:50.322Z,5.30
2018-02-01T08:24:24.080Z,5.30
2018-02-01T08:26:57.949Z,5.30
2018-02-01T08:29:31.636Z,5.20
2018-02-01T08:32:05.380Z,5.30
2018-02-01T08:34:39.937Z,5.30
2018-02-01T08:37:13.683Z,5.30
2018-02-01T08:39:47.435Z,5.30
2018-02-01T08:42:21.254Z,5.40
2018-02-01T08:44:55.829Z,5.50
2018-02-01T08:47:30.274Z,5.40
2018-02-01T08:50:04.123Z,5.40
2018-02-01T08:52:38.495Z,5.40
2018-02-01T08:55:12.501Z,5.40
2018-02-01T08:57:47.700Z,5.60
2018-02-01T09:00:21.365Z,5.50
2018-02-01T09:02:55.103Z,5.40
2018-02-01T09:05:28.972Z,5.50
2018-02-01T09:08:02.819Z,5.60
2018-02-01T09:10:37.651Z,5.80
2018-02-01T09:13:11.453Z,5.80
2018-02-01T09:15:45.436Z,5.80
2018-02-01T09:18:19.875Z,5.90
2018-02-01T09:20:54.438Z,5.80
2018-02-01T09:23:28.229Z,5.80
2018-02-01T09:26:02.061Z,5.80
2018-02-01T09:28:35.811Z,5.80
2018-02-01T09:31:09.724Z,5.70
2018-02-01T09:33:43.424Z,5.80
2018-02-01T09:36:17.232Z,5.70
2018-02-01T09:38:51.080Z,5.90
2018-02-01T09:41:24.759Z,6.10
2018-02-01T09:43:58.595Z,6.10
2018-02-01T09:46:32.330Z,5.90
2018-02-01T09:49:06.055Z,6.00
2018-02-01T09:51:40.540Z,5.90
2018-02-01T09:54:15.011Z,6.00
2018-02-01T09:56:48.902Z,6.00
2018-02-01T09:59:23.395Z,6.10
2018-02-01T10:01:57.040Z,6.10
2018-02-01T10:04:30.739Z,5.80
2018-02-01T10:07:05.287Z,6.20
2018-02-01T10:09:39.976Z,6.30
2018-02-01T10:12:13.853Z,6.30
2018-02-01T10:14:47.562Z,6.30
2018-02-01T10:17:21.425Z,6.30
2018-02-01T10:19:55.203Z,6.30
2018-02-01T10:22:29.079Z,6.20
2018-02-01T10:25:02.793Z,6.40
2018-02-01T10:27:37.318Z,6.40
2018-02-01T10:30:11.852Z,6.30
2018-02-01T10:32:46.476Z,6.30
2018-02-01T10:35:20.980Z,6.40
2018-02-01T10:37:54.739Z,6.40
2018-02-01T10:40:29.325Z,6.30
2018-02-01T10:43:03.911Z,6.30
2018-02-01T10:45:37.775Z,6.20
2018-02-01T10:48:11.569Z,6.20
2018-02-01T10:50:46.523Z,6.20
2018-02-01T10:53:20.335Z,6.20
2018-02-01T10:55:54.056Z,6.20
2018-02-01T10:58:28.115Z,6.20
2018-02-01T11:01:02.512Z,6.20
2018-02-01T11:03:36.370Z,6.20
2018-02-01T11:06:10.952Z,6.40
2018-02-01T11:08:44.755Z,6.40
2018-02-01T11:11:18.594Z,6.40
2018-02-01T11:13:53.703Z,6.50
2018-02-01T11:16:28.072Z,6.60
2018-02-01T11:19:02.131Z,6.60
2018-02-01T11:21:35.748Z,6.40
2018-02-01T11:24:10.338Z,6.40
2018-02-01T11:26:44.067Z,6.30
2018-02-01T11:29:17.872Z,6.20
2018-02-01T11:31:51.569Z,6.30
2018-02-01T11:34:26.164Z,6.40
2018-02-01T11:36:59.885Z,6.40
2018-02-01T11:39:33.789Z,6.40
2018-02-01T11:42:07.495Z,6.30
2018-02-01T11:44:41.373Z,6.30
2018-02-01T11:47:15.157Z,6.10
2018-02-01T11:49:48.930Z,6.10
2018-02-01T11:52:22.712Z,6.00
2018-02-01T11:54:57.540Z,6.00
2018-02-01T11:57:31.880Z,6.20
2018-02-01T12:00:05.782Z,6.20
2018-02-01T12:02:39.814Z,6.30
2018-02-01T12:05:14.343Z,6.20
2018-02-01T12:07:48.116Z,6.20
2018-02-01T12:10:21.952Z,6.30
2018-02-01T12:12:55.967Z,6.20
2018-02-01T12:15:29.695Z,6.20
2018-02-01T12:18:04.091Z,6.00
2018-02-01T12:20:37.986Z,6.00
2018-02-01T12:23:12.399Z,5.80
2018-02-01T12:25:46.549Z,5.80
2018-02-01T12:28:20.308Z,5.90
2018-02-01T12:30:54.048Z,5.90
2018-02-01T12:33:28.556Z,5.80
2018-02-01T12:36:03.236Z,6.00
2018-02-01T12:38:37.031Z,6.00
2018-02-01T12:41:10.815Z,6.10
2018-02-01T12:43:44.515Z,6.10
2018-02-01T12:46:19.852Z,5.80
2018-02-01T12:48:53.603Z,5.80
2018-02-01T12:51:27.871Z,6.00
2018-02-01T12:54:01.584Z,6.00
2018-02-01T12:56:35.414Z,5.90
2018-02-01T12:59:09.251Z,5.60
2018-02-01T13:01:42.984Z,5.60
2018-02-01T13:04:16.816Z,5.70
2018-02-01T13:06:50.639Z,5.80
2018-02-01T13:09:24.492Z,5.90
2018-02-01T13:11:58.644Z,6.00
2018-02-01T13:14:32.301Z,6.10
2018-02-01T13:17:06.170Z,6.20
2018-02-01T13:19:40.678Z,6.20
2018-02-01T13:22:14.392Z,6.20
2018-02-01T13:24:48.185Z,6.10
2018-02-01T13:27:22.810Z,5.80
2018-02-01T13:29:56.396Z,5.80
2018-02-01T13:32:30.210Z,5.80
2018-02-01T13:35:03.936Z,5.60
2018-02-01T13:37:37.732Z,5.50
2018-02-01T13:40:11.507Z,5.60
2018-02-01T13:42:45.139Z,5.80
2018-02-01T13:45:18.888Z,5.90
2018-02-01T13:47:52.626Z,6.00
2018-02-01T13:50:26.392Z,6.10
2018-02-01T13:53:01.047Z,5.80
2018-02-01T13:55:35.589Z,5.90
2018-02-01T13:58:10.207Z,6.00
2018-02-01T14:00:43.933Z,5.90
2018-02-01T14:03:17.716Z,6.00
2018-02-01T14:05:51.475Z,6.00
2018-02-01T14:08:25.321Z,6.00
2018-02-01T14:10:59.827Z,6.10
2018-02-01T14:13:33.644Z,6.10
2018-02-01T14:16:08.279Z,6.00
2018-02-01T14:18:42.142Z,6.00
2018-02-01T14:21:15.876Z,6.00
2018-02-01T14:23:49.761Z,6.00
2018-02-01T14:26:23.568Z,5.90
2018-02-01T14:28:57.602Z,5.90
2018-02-01T14:31:31.483Z,6.00
2018-02-01T14:34:05.232Z,6.00
2018-02-01T14:36:39.121Z,6.00
2018-02-01T14:39:13.539Z,5.90
2018-02-01T14:41:47.289Z,5.80
2018-02-01T14:44:20.980Z,5.80
2018-02-01T14:46:54.787Z,5.90
2018-02-01T14:49:28.591Z,6.00
2018-02-01T14:52:02.676Z,6.00
2018-02-01T14:54:36.389Z,6.00
2018-02-01T14:57:10.084Z,6.00
2018-02-01T14:59:44.690Z,6.00
2018-02-01T15:02:18.460Z,5.90
2018-02-01T15:04:53.016Z,6.00
2018-02-01T15:07:26.847Z,6.00
2018-02-01T15:10:01.356Z,6.00
2018-02-01T15:12:35.821Z,6.00
2018-02-01T15:15:09.860Z,6.00
2018-02-01T15:17:44.433Z,5.90
2018-02-01T15:20:18.274Z,5.90
2018-02-01T15:22:52.865Z,5.90
2018-02-01T15:25:26.574Z,5.80
2018-02-01T15:28:00.471Z,5.80
2018-02-01T15:30:34.176Z,5.80
2018-02-01T15:33:08.000Z,5.70
2018-02-01T15:35:41.752Z,5.70
2018-02-01T15:38:15.561Z,5.70
2018-02-01T15:40:50.207Z,5.70
2018-02-01T15:43:24.887Z,5.60
2018-02-01T15:45:58.466Z,5.60
2018-02-01T15:48:32.271Z,5.60
2018-02-01T15:51:07.077Z,5.60
2018-02-01T15:53:41.637Z,5.70
2018-02-01T15:56:15.431Z,5.60
2018-02-01T15:58:50.068Z,5.70
2018-02-01T16:01:23.760Z,5.60
2018-02-01T16:03:58.379Z,5.60
2018-02-01T16:06:33.712Z,5.50
2018-02-01T16:09:09.264Z,5.50
2018-02-01T16:11:44.075Z,5.50
2018-02-01T16:14:18.831Z,5.30
2018-02-01T16:16:53.415Z,5.40
2018-02-01T16:19:28.000Z,5.30
2018-02-01T16:22:01.751Z,5.30
2018-02-01T16:24:35.516Z,5.40
2018-02-01T16:27:09.309Z,5.30
2018-02-01T16:29:43.821Z,5.30
2018-02-01T16:32:18.609Z,5.30
2018-02-01T16:34:53.163Z,5.30
2018-02-01T16:37:26.888Z,5.30
2018-02-01T16:40:01.476Z,5.30
2018-02-01T16:42:35.379Z,5.30
2018-02-01T16:45:09.159Z,5.20
2018-02-01T16:47:43.048Z,5.20
2018-02-01T16:50:16.815Z,5.20
2018-02-01T16:52:50.648Z,5.20
2018-02-01T16:55:25.227Z,5.10
2018-02-01T16:57:59.690Z,5.10
2018-02-01T17:00:33.447Z,5.10
2018-02-01T17:03:07.332Z,5.10
2018-02-01T17:05:41.151Z,5.00
2018-02-01T17:08:15.023Z,5.00
2018-02-01T17:10:48.704Z,5.00
2018-02-01T17:13:22.547Z,5.00
2018-02-01T17:15:57.344Z,5.10
2018-02-01T17:18:31.381Z,5.10
2018-02-01T17:21:05.205Z,5.10
2018-02-01T17:23:39.226Z,5.10
2018-02-01T17:26:14.726Z,5.20
2018-02-01T17:28:48.453Z,5.20
2018-02-01T17:31:22.226Z,5.20
2018-02-01T17:33:55.963Z,5.10
2018-02-01T17:36:29.729Z,5.20
2018-02-01T17:39:04.255Z,5.20
2018-02-01T17:41:37.927Z,5.20
2018-02-01T17:44:13.398Z,5.10
2018-02-01T17:46:47.128Z,5.10
2018-02-01T17:49:20.960Z,5.20
2018-02-01T17:51:54.816Z,5.20
2018-02-01T17:54:29.452Z,5.10
2018-02-01T17:57:03.256Z,5.10
2018-02-01T17:59:37.089Z,5.10
2018-02-01T18:02:10.823Z,5.10
2018-02-01T18:04:44.572Z,5.10
2018-02-01T18:07:18.267Z,5.10
2018-02-01T18:09:52.241Z,5.10
2018-02-01T18:12:26.711Z,5.00
2018-02-01T18:15:00.568Z,5.00
2018-02-01T18:17:34.411Z,5.10
2018-02-01T18:20:08.277Z,5.00
2018-02-01T18:22:42.327Z,5.10
2018-02-01T18:25:16.210Z,5.10
2018-02-01T18:27:51.750Z,5.10
2018-02-01T18:30:26.248Z,5.10
2018-02-01T18:33:00.040Z,5.20
2018-02-01T18:35:33.941Z,5.10
2018-02-01T18:38:07.990Z,5.10
2018-02-01T18:40:41.934Z,5.10
2018-02-01T18:43:15.793Z,5.10
2018-02-01T18:45:49.661Z,5.10
2018-02-01T18:48:23.455Z,5.20
2018-02-01T18:50:57.300Z,5.20
2018-02-01T18:53:31.111Z,5.20
2018-02-01T18:56:04.878Z,5.20
2018-02-01T18:58:38.704Z,5.20
2018-02-01T19:01:13.392Z,5.30
2018-02-01T19:03:47.103Z,5.20
2018-02-01T19:06:20.843Z,5.20
2018-02-01T19:08:55.464Z,5.20
2018-02-01T19:11:29.355Z,5.20
2018-02-01T19:14:03.176Z,5.20
2018-02-01T19:16:36.971Z,5.20
2018-02-01T19:19:11.407Z,5.20
2018-02-01T19:21:45.113Z,5.20
2018-02-01T19:24:18.839Z,5.20
2018-02-01T19:26:52.606Z,5.20
2018-02-01T19:29:26.518Z,5.30
2018-02-01T19:32:00.342Z,5.20
2018-02-01T19:34:34.177Z,5.20
2018-02-01T19:37:08.072Z,5.10
2018-02-01T19:39:42.221Z,5.10
2018-02-01T19:42:16.077Z,5.10
2018-02-01T19:44:50.796Z,5.00
2018-02-01T19:47:24.841Z,5.00
2018-02-01T19:49:58.698Z,5.00
2018-02-01T19:52:32.544Z,5.00
2018-02-01T19:55:06.374Z,5.00
2018-02-01T19:57:40.725Z,4.90
2018-02-01T20:00:14.481Z,4.90
2018-02-01T20:02:48.479Z,4.90
2018-02-01T20:05:22.414Z,4.90
2018-02-01T20:07:56.911Z,5.00
2018-02-01T20:10:31.404Z,5.00
2018-02-01T20:13:05.892Z,5.00
2018-02-01T20:15:39.803Z,5.00
2018-02-01T20:18:13.841Z,5.10
2018-02-01T20:20:47.587Z,5.00
2018-02-01T20:23:22.169Z,4.90
2018-02-01T20:25:55.879Z,4.80
2018-02-01T20:28:30.405Z,4.60
2018-02-01T20:31:04.259Z,4.70
2018-02-01T20:33:38.815Z,4.60
2018-02-01T20:36:12.499Z,4.60
2018-02-01T20:38:46.224Z,4.60
2018-02-01T20:41:20.061Z,4.60
2018-02-01T20:43:53.937Z,4.50
2018-02-01T20:46:28.969Z,4.50
2018-02-01T20:49:03.681Z,4.50
2018-02-01T20:51:37.635Z,4.50
2018-02-01T20:54:11.479Z,4.40
2018-02-01T20:56:45.994Z,4.40
2018-02-01T20:59:20.596Z,4.40
2018-02-01T21:01:54.295Z,4.30
2018-02-01T21:04:28.115Z,4.30
2018-02-01T21:07:01.967Z,4.20
2018-02-01T21:09:36.186Z,4.20
2018-02-01T21:12:09.873Z,4.10
2018-02-01T21:14:43.756Z,4.00
2018-02-01T21:19:47.324Z,3.90
2018-02-01T21:22:21.872Z,3.80
2018-02-01T21:24:55.674Z,3.80
2018-02-01T21:27:29.446Z,3.90
2018-02-01T21:30:03.401Z,3.90
2018-02-01T21:32:37.995Z,3.80
2018-02-01T21:35:12.698Z,3.80
2018-02-01T21:37:46.648Z,3.80
2018-02-01T21:40:20.842Z,3.80
2018-02-01T21:42:54.514Z,3.80
2018-02-01T21:45:29.013Z,3.80
2018-02-01T21:48:03.613Z,3.80
2018-02-01T21:50:37.353Z,3.80
2018-02-01T21:53:11.161Z,3.80
2018-02-01T21:55:45.739Z,3.70
2018-02-01T21:58:19.671Z,3.60
